createdAt,value
2017-11-20T00:02:34.540Z,80.20
2017-11-20T00:17:37.449Z,80.33
2017-11-20T00:32:37.856Z,80.25
2017-11-20T00:47:35.424Z,80.49
2017-11-20T01:02:36.794Z,80.54
2017-11-20T01:17:34.200Z,80.25
2017-11-20T01:32:38.061Z,80.01
2017-11-20T01:47:34.638Z,80.19
2017-11-20T02:02:46.829Z,80.36
2017-11-20T02:17:34.340Z,80.17
2017-11-20T02:32:34.381Z,79.88
2017-11-20T02:47:33.729Z,79.89
2017-11-20T03:02:37.200Z,80.16
2017-11-20T03:17:34.565Z,80.19
2017-11-20T03:32:34.523Z,80.11
2017-11-20T03:47:34.453Z,80.07
2017-11-20T04:02:34.378Z,79.47
2017-11-20T04:17:35.792Z,79.30
2017-11-20T04:32:34.733Z,78.96
2017-11-20T04:47:36.221Z,78.43
2017-11-20T05:02:36.611Z,77.91
2017-11-20T05:17:36.079Z,77.79
2017-11-20T05:32:35.946Z,77.70
2017-11-20T05:47:36.924Z,77.38
2017-11-20T06:02:36.851Z,77.19
2017-11-20T06:47:34.081Z,76.88
2017-11-20T07:02:36.005Z,76.59
2017-11-20T07:32:34.476Z,76.32
2017-11-20T08:47:36.611Z,68.44
2017-11-20T09:02:34.542Z,66.74
2017-11-20T09:17:34.978Z,65.61
2017-11-20T09:32:34.904Z,61.83
2017-11-20T09:47:34.788Z,58.77
2017-11-20T10:02:35.070Z,58.74
2017-11-20T10:17:35.245Z,59.26
2017-11-20T10:32:34.153Z,61.19
2017-11-20T10:47:36.553Z,61.19
2017-11-20T11:02:36.452Z,62.04
2017-11-20T11:17:33.871Z,61.96
2017-11-20T11:32:34.350Z,61.15
2017-11-20T11:47:34.234Z,61.19
2017-11-20T12:02:34.213Z,61.24
2017-11-20T12:17:34.609Z,62.19
2017-11-20T12:32:34.544Z,62.47
2017-11-20T12:47:34.497Z,63.61
2017-11-20T15:02:34.872Z,66.51
2017-11-20T15:17:36.289Z,66.43
2017-11-20T15:32:34.243Z,66.14
2017-11-20T16:17:34.530Z,65.77
2017-11-20T16:47:34.454Z,65.27
2017-11-20T17:17:35.390Z,66.17
2017-11-20T17:32:34.677Z,66.57
2017-11-20T17:47:41.138Z,66.94
2017-11-20T18:02:34.628Z,67.49
2017-11-20T18:17:34.102Z,67.67
2017-11-20T18:32:33.981Z,67.67
2017-11-20T18:47:40.447Z,67.71
2017-11-20T19:02:46.734Z,67.76
2017-11-20T19:17:34.332Z,67.51
2017-11-20T19:32:35.684Z,67.03
2017-11-20T19:47:35.134Z,66.07
2017-11-20T20:02:38.141Z,65.19
2017-11-20T20:17:34.166Z,64.20
2017-11-20T20:32:35.634Z,63.28
2017-11-20T21:02:35.335Z,62.65
2017-11-20T21:17:34.833Z,62.41
2017-11-20T21:32:34.709Z,62.45
2017-11-20T21:47:34.592Z,62.78
2017-11-20T22:02:36.513Z,61.96
2017-11-20T22:17:37.846Z,62.76
2017-11-20T22:32:34.924Z,63.25
2017-11-20T22:47:34.840Z,63.28
2017-11-20T23:02:34.782Z,62.65
2017-11-20T23:17:35.161Z,62.90
2017-11-20T23:32:35.109Z,62.73
2017-11-20T23:47:35.032Z,62.89
